Time;durP1;ratioP1;P1;durP2;ratioP2;P2;SDS_P1;SDS_P2;PMS_P1;PMS_P2;Temp;Humidity;BMP_temperature;BMP_pressure;BME280_temperature;BME280_humidity;BME280_pressure;Samples;Min_cycle;Max_cycle;Signal;HPM_P1;HPM_P2
2023/10/27 00:00:26;;;;;;;8.50;5.90;;;;;;;16.93;100.00;97778.11;104245;1256;60739;-60
2023/10/27 00:02:53;;;;;;;;;;;;;;;16.96;100.00;97781.81;104400;1257;60532;-59
2023/10/27 00:05:21;;;;;;;;;;;;;;;16.96;100.00;97781.65;104732;1251;74055;-60
2023/10/27 00:07:49;;;;;;;6.60;5.30;;;;;;;16.97;100.00;97779.41;104313;1253;69685;-60
2023/10/27 00:10:17;;;;;;;6.80;5.70;;;;;;;16.96;100.00;97777.54;104524;1257;72366;-59
2023/10/27 00:12:45;;;;;;;6.70;6.10;;;;;;;16.96;100.00;97773.77;106940;1253;62348;-59
2023/10/27 00:15:13;;;;;;;6.40;5.80;;;;;;;16.99;100.00;97777.43;107425;1252;60540;-59
2023/10/27 00:17:40;;;;;;;6.20;5.70;;;;;;;16.99;100.00;97778.98;104940;1257;73045;-63
2023/10/27 00:20:09;;;;;;;7.50;5.90;;;;;;;16.98;100.00;97778.02;104672;1257;69406;-60
2023/10/27 00:22:37;;;;;;;6.10;5.50;;;;;;;16.95;100.00;97781.47;104575;1269;72426;-60
2023/10/27 00:25:05;;;;;;;7.60;6.10;;;;;;;16.93;100.00;97785.19;104652;1260;61345;-61
2023/10/27 00:27:33;;;;;;;6.10;5.50;;;;;;;16.94;100.00;97787.99;104739;1253;60486;-61
2023/10/27 00:30:01;;;;;;;7.00;6.40;;;;;;;16.92;100.00;97784.41;104440;1253;73716;-61
2023/10/27 00:32:29;;;;;;;;;;;;;;;16.93;100.00;97784.85;104364;1257;68101;-60
2023/10/27 00:34:56;;;;;;;7.20;5.60;;;;;;;16.91;100.00;97784.14;104267;1256;72743;-60
2023/10/27 00:37:24;;;;;;;7.00;5.80;;;;;;;16.87;100.00;97785.15;104408;1255;61435;-61
2023/10/27 00:39:52;;;;;;;6.20;5.70;;;;;;;16.87;100.00;97783.56;104993;1254;60706;-62
2023/10/27 00:42:20;;;;;;;6.70;6.00;;;;;;;16.90;100.00;97773.86;106521;1253;74264;-62
2023/10/27 00:44:48;;;;;;;6.50;5.90;;;;;;;16.90;100.00;97775.48;104757;1256;69181;-60
2023/10/27 00:47:16;;;;;;;6.90;6.20;;;;;;;16.90;100.00;97771.86;105243;1253;73330;-61
2023/10/27 00:49:43;;;;;;;;;;;;;;;16.95;100.00;97771.96;104464;1269;61367;-60
2023/10/27 00:52:13;;;;;;;7.10;6.40;;;;;;;16.93;100.00;97772.14;104764;1257;60645;-60
2023/10/27 00:54:41;;;;;;;7.00;6.30;;;;;;;16.89;100.00;97768.28;104242;1252;73979;-60
2023/10/27 00:57:09;;;;;;;9.10;6.50;;;;;;;16.89;100.00;97767.95;104546;1257;69997;-60
2023/10/27 00:59:37;;;;;;;6.50;5.90;;;;;;;16.91;100.00;97772.89;104436;1254;72392;-60
2023/10/27 01:02:04;;;;;;;;;;;;;;;16.91;100.00;97772.55;104476;1254;62361;-60
2023/10/27 01:04:32;;;;;;;6.30;5.40;;;;;;;16.86;100.00;97777.76;104305;1258;60763;-59
2023/10/27 01:07:00;;;;;;;7.20;5.70;;;;;;;16.83;100.00;97777.55;104230;1253;73716;-60
2023/10/27 01:09:28;;;;;;;7.40;6.00;;;;;;;16.82;100.00;97772.32;104471;1259;69169;-60
2023/10/27 01:11:57;;;;;;;6.40;5.50;;;;;;;16.83;100.00;97772.73;104483;1256;72228;-60
2023/10/27 01:14:27;;;;;;;5.60;5.10;;;;;;;16.83;100.00;97775.04;106525;1251;62358;-61
2023/10/27 01:16:56;;;;;;;6.10;5.40;;;;;;;16.84;100.00;97773.89;105726;1253;60860;-60
2023/10/27 01:19:24;;;;;;;5.60;4.90;;;;;;;16.82;100.00;97772.52;104344;1259;74565;-60
2023/10/27 01:21:52;;;;;;;;;;;;;;;16.80;100.00;97768.23;104339;1259;69250;-61
2023/10/27 01:24:22;;;;;;;6.50;5.00;;;;;;;16.77;100.00;97768.90;104796;1254;72588;-61
2023/10/27 01:26:50;;;;;;;6.00;5.10;;;;;;;16.74;100.00;97771.46;104367;1253;62440;-61
2023/10/27 01:29:17;;;;;;;;;;;;;;;16.73;100.00;97775.13;104421;1257;60553;-61
2023/10/27 01:31:45;;;;;;;5.50;5.00;;;;;;;16.69;100.00;97776.59;104423;1254;73830;-60
2023/10/27 01:34:13;;;;;;;7.50;6.40;;;;;;;16.66;100.00;97784.17;104531;1256;69179;-62
2023/10/27 01:36:41;;;;;;;6.70;5.10;;;;;;;16.59;100.00;97783.57;104285;1263;72407;-61
2023/10/27 01:39:08;;;;;;;6.70;5.50;;;;;;;16.54;100.00;97787.59;104278;1254;61756;-60
2023/10/27 01:41:36;;;;;;;8.20;5.50;;;;;;;16.47;100.00;97791.63;104469;1258;61018;-60
2023/10/27 01:44:04;;;;;;;8.30;6.20;;;;;;;16.43;100.00;97789.15;104966;1256;73078;-61
2023/10/27 01:46:32;;;;;;;5.90;5.40;;;;;;;16.42;100.00;97788.82;104266;1256;69103;-61
2023/10/27 01:48:59;;;;;;;6.60;6.00;;;;;;;16.41;100.00;97782.11;104352;1258;73330;-59
2023/10/27 01:51:28;;;;;;;7.90;5.80;;;;;;;16.42;100.00;97784.36;104417;1254;61379;-60
2023/10/27 01:53:55;;;;;;;7.30;6.60;;;;;;;16.41;100.00;97785.10;104648;1251;60529;-61
2023/10/27 01:56:23;;;;;;;7.70;6.40;;;;;;;16.37;100.00;97782.81;104279;1259;74537;-59
2023/10/27 01:58:51;;;;;;;11.30;6.20;;;;;;;16.36;100.00;97788.77;104454;1258;69062;-59
2023/10/27 02:01:19;;;;;;;6.90;6.20;;;;;;;16.35;100.00;97792.96;104637;1253;72191;-61
2023/10/27 02:03:47;;;;;;;6.90;6.30;;;;;;;16.33;100.00;97791.36;104291;1255;61430;-60
2023/10/27 02:06:24;;;;;;;10.70;6.50;;;;;;;16.35;100.00;97788.53;104538;1253;59669;-61
2023/10/27 02:08:52;;;;;;;9.00;6.00;;;;;;;16.35;100.00;97791.68;104389;1257;74490;-60
2023/10/27 02:11:20;;;;;;;9.10;7.10;;;;;;;16.34;100.00;97787.92;104323;1256;69146;-59
2023/10/27 02:13:49;;;;;;;7.40;6.60;;;;;;;16.31;100.00;97784.34;104365;1265;72499;-59
2023/10/27 02:16:16;;;;;;;7.10;5.80;;;;;;;16.31;100.00;97790.48;107295;1252;61590;-60
2023/10/27 02:18:44;;;;;;;6.50;5.90;;;;;;;16.32;100.00;97787.52;105083;1253;60544;-61
2023/10/27 02:21:12;;;;;;;7.30;5.80;;;;;;;16.31;100.00;97784.98;104533;1256;72655;-59
2023/10/27 02:23:40;;;;;;;;;;;;;;;16.31;100.00;97784.14;104456;1255;69159;-60
2023/10/27 02:26:08;;;;;;;6.00;5.50;;;;;;;16.26;100.00;97784.39;104746;1251;71808;-60
2023/10/27 02:28:37;;;;;;;;;;;;;;;16.23;100.00;97789.71;104727;1253;61476;-61
2023/10/27 02:31:05;;;;;;;6.50;5.40;;;;;;;16.16;100.00;97797.55;104424;1256;60532;-59
2023/10/27 02:33:33;;;;;;;8.10;6.80;;;;;;;16.11;100.00;97791.31;104384;1261;72726;-60
2023/10/27 02:36:00;;;;;;;;;;;;;;;16.07;100.00;97788.92;104362;1258;69151;-59
2023/10/27 02:38:28;;;;;;;;;;;;;;;16.04;100.00;97791.48;104410;1253;72784;-60
2023/10/27 02:40:56;;;;;;;;;;;;;;;16.03;100.00;97794.61;104870;1252;61729;-62
2023/10/27 02:43:23;;;;;;;;;;;;;;;16.02;100.00;97799.64;108391;1252;59640;-61
2023/10/27 02:46:02;;;;;;;7.00;5.90;;;;;;;16.02;100.00;97799.60;106539;1257;74571;-61
2023/10/27 02:48:31;;;;;;;9.90;5.30;;;;;;;16.00;100.00;97808.09;104751;1253;69156;-59
2023/10/27 02:50:59;;;;;;;5.60;5.00;;;;;;;15.96;100.00;97808.68;104358;1257;72549;-59
2023/10/27 02:53:26;;;;;;;5.80;4.80;;;;;;;15.99;100.00;97802.41;104587;1252;61783;-59
2023/10/27 02:55:54;;;;;;;5.40;4.90;;;;;;;15.97;100.00;97801.43;104594;1257;60998;-58
2023/10/27 02:58:22;;;;;;;8.10;5.30;;;;;;;16.02;100.00;97799.95;104501;1256;72743;-59
2023/10/27 03:00:49;;;;;;;;;;;;;;;16.01;100.00;97798.61;104322;1275;69569;-59
2023/10/27 03:03:17;;;;;;;5.40;4.90;;;;;;;16.04;100.00;97795.20;104265;1259;71434;-59
2023/10/27 03:05:45;;;;;;;5.40;4.90;;;;;;;16.03;100.00;97802.90;104546;1257;61642;-59
2023/10/27 03:08:13;;;;;;;4.70;4.30;;;;;;;16.01;100.00;97807.09;104662;1257;60731;-59
2023/10/27 03:10:40;;;;;;;7.50;4.90;;;;;;;15.98;100.00;97808.30;104279;1253;73761;-60
2023/10/27 03:13:09;;;;;;;6.00;5.40;;;;;;;15.94;100.00;97810.95;104409;1269;70218;-59
2023/10/27 03:15:36;;;;;;;;;;;;;;;15.89;100.00;97808.08;106706;1251;72315;-60
2023/10/27 03:18:04;;;;;;;8.50;5.20;;;;;;;15.86;100.00;97805.52;106059;1254;60658;-60
2023/10/27 03:20:32;;;;;;;9.40;5.50;;;;;;;15.84;100.00;97802.56;104430;1257;60643;-59
2023/10/27 03:23:00;;;;;;;6.00;5.50;;;;;;;15.80;100.00;97803.08;104928;1263;74014;-59
2023/10/27 03:25:29;;;;;;;5.70;5.20;;;;;;;15.76;100.00;97803.81;104743;1256;69720;-60
2023/10/27 03:27:57;;;;;;;;;;;;;;;15.74;100.00;97805.59;104751;1259;72502;-60
2023/10/27 03:30:25;;;;;;;5.40;4.90;;;;;;;15.71;100.00;97809.02;104398;1259;60728;-59
2023/10/27 03:32:54;;;;;;;6.20;5.50;;;;;;;15.67;100.00;97810.14;104471;1259;60464;-59
2023/10/27 03:35:22;;;;;;;6.60;6.00;;;;;;;15.63;100.00;97813.09;104305;1253;73748;-61
2023/10/27 03:37:49;;;;;;;7.00;5.90;;;;;;;15.61;100.00;97817.20;104332;1258;70298;-59
2023/10/27 03:40:17;;;;;;;6.90;5.50;;;;;;;15.55;100.00;97816.45;104507;1270;72429;-59
2023/10/27 03:42:45;;;;;;;6.30;5.70;;;;;;;15.55;100.00;97815.65;104349;1253;61427;-59
2023/10/27 03:45:13;;;;;;;6.30;5.70;;;;;;;15.54;100.00;97817.56;104699;1254;60525;-57
2023/10/27 03:47:40;;;;;;;6.10;5.10;;;;;;;15.50;100.00;97817.63;104431;1259;74512;-58
2023/10/27 03:50:11;;;;;;;5.60;4.90;;;;;;;15.47;100.00;97816.66;104341;1257;70752;-56
2023/10/27 03:52:39;;;;;;;5.90;5.40;;;;;;;15.46;100.00;97809.05;104433;1258;73166;-61
2023/10/27 03:55:07;;;;;;;7.00;5.50;;;;;;;15.46;100.00;97801.45;104558;1253;61080;-60
2023/10/27 03:57:38;;;;;;;6.50;5.90;;;;;;;15.42;100.00;97793.14;104417;1257;60543;-60
2023/10/27 04:00:07;;;;;;;7.50;6.80;;;;;;;15.41;100.00;97791.66;104340;1265;73656;-60
2023/10/27 04:02:39;;;;;;;7.20;6.40;;;;;;;15.38;100.00;97793.17;104442;1265;69072;-62
2023/10/27 04:05:07;;;;;;;7.80;6.80;;;;;;;15.34;100.00;97794.55;104288;1252;72353;-60
2023/10/27 04:07:35;;;;;;;6.70;6.00;;;;;;;15.30;100.00;97793.52;104557;1257;61809;-60
2023/10/27 04:10:03;;;;;;;;;;;;;;;15.24;100.00;97796.69;104504;1258;59918;-60
2023/10/27 04:12:31;;;;;;;8.50;7.10;;;;;;;15.16;100.00;97802.58;104566;1259;74047;-61
2023/10/27 04:14:59;;;;;;;8.10;7.20;;;;;;;15.13;100.00;97807.27;104423;1258;69036;-60
2023/10/27 04:17:26;;;;;;;7.40;6.50;;;;;;;15.16;100.00;97805.63;108387;1251;71525;-62
2023/10/27 04:19:54;;;;;;;7.80;6.50;;;;;;;15.19;100.00;97805.84;108339;1252;61402;-62
2023/10/27 04:22:22;;;;;;;7.80;7.10;;;;;;;15.17;100.00;97804.42;108398;1251;60701;-63
2023/10/27 04:24:49;;;;;;;8.60;6.70;;;;;;;15.18;100.00;97805.36;108352;1251;74089;-62
2023/10/27 04:27:17;;;;;;;7.30;6.20;;;;;;;15.18;100.00;97804.49;108410;1251;69766;-61
2023/10/27 04:29:46;;;;;;;8.50;5.90;;;;;;;15.16;100.00;97808.70;108480;1253;71928;-61
2023/10/27 04:32:15;;;;;;;6.20;5.30;;;;;;;15.18;100.00;97813.11;108513;1251;61476;-62
2023/10/27 04:34:43;;;;;;;7.40;5.60;;;;;;;15.21;100.00;97811.33;108567;1252;59750;-62
2023/10/27 04:37:11;;;;;;;7.00;5.90;;;;;;;15.21;100.00;97810.27;108493;1252;72756;-62
2023/10/27 04:39:38;;;;;;;6.60;6.00;;;;;;;15.19;100.00;97812.53;108550;1251;69100;-62
2023/10/27 04:42:07;;;;;;;7.60;5.50;;;;;;;15.18;100.00;97812.29;108519;1251;72389;-61
2023/10/27 04:44:36;;;;;;;9.90;5.90;;;;;;;15.15;100.00;97810.46;108440;1253;61489;-61
2023/10/27 04:47:04;;;;;;;6.50;5.70;;;;;;;15.12;100.00;97804.88;108501;1253;60115;-60
2023/10/27 04:49:31;;;;;;;;;;;;;;;15.12;100.00;97806.45;108433;1253;74067;-61
2023/10/27 04:51:59;;;;;;;;;;;;;;;15.15;100.00;97807.23;108404;1252;69206;-64
2023/10/27 04:54:27;;;;;;;8.30;5.90;;;;;;;15.22;100.00;97808.58;108319;1253;72869;-63
2023/10/27 04:56:55;;;;;;;7.90;6.80;;;;;;;15.24;100.00;97814.55;108420;1252;61675;-61
2023/10/27 04:59:22;;;;;;;10.90;8.00;;;;;;;15.24;100.00;97818.98;108339;1253;60427;-64
2023/10/27 05:01:50;;;;;;;8.80;7.40;;;;;;;15.26;100.00;97818.82;108432;1251;73584;-64
2023/10/27 05:04:18;;;;;;;9.30;7.00;;;;;;;15.29;100.00;97823.27;108524;1253;70117;-63
2023/10/27 05:06:46;;;;;;;;;;;;;;;15.30;100.00;97823.90;108538;1253;73368;-63
2023/10/27 05:09:13;;;;;;;;;;;;;;;15.31;100.00;97828.27;108568;1252;61393;-62
2023/10/27 05:11:42;;;;;;;7.00;5.20;;;;;;;15.29;100.00;97829.23;108496;1253;59840;-63
2023/10/27 05:14:10;;;;;;;6.40;5.40;;;;;;;15.28;100.00;97831.98;108474;1253;74487;-63
2023/10/27 05:16:38;;;;;;;5.50;5.00;;;;;;;15.28;100.00;97831.46;108380;1253;69005;-63
2023/10/27 05:19:06;;;;;;;6.00;5.20;;;;;;;15.30;100.00;97829.85;108386;1253;72457;-63
2023/10/27 05:21:34;;;;;;;6.20;5.20;;;;;;;15.32;100.00;97834.68;108399;1253;61411;-64
2023/10/27 05:24:02;;;;;;;;;;;;;;;15.32;100.00;97841.05;108417;1251;59750;-63
2023/10/27 05:26:30;;;;;;;5.60;5.10;;;;;;;15.35;100.00;97846.38;108415;1253;74040;-63
2023/10/27 05:28:59;;;;;;;5.90;5.20;;;;;;;15.35;100.00;97847.23;108531;1256;69589;-62
2023/10/27 05:31:27;;;;;;;5.10;4.70;;;;;;;15.38;100.00;97847.67;108435;1253;72379;-64
2023/10/27 05:33:55;;;;;;;5.70;5.20;;;;;;;15.38;100.00;97841.00;108210;1256;61032;-63
2023/10/27 05:36:23;;;;;;;;;;;;;;;15.35;100.00;97826.62;108272;1256;60107;-63
2023/10/27 05:38:51;;;;;;;5.50;5.00;;;;;;;15.44;100.00;97835.31;108464;1253;72916;-63
2023/10/27 05:44:34;;;;;;;6.00;5.50;;;;;;;15.50;100.00;97850.88;101600;1292;602298;-61
2023/10/27 05:47:03;;;;;;;7.40;6.00;;;;;;;15.52;100.00;97848.58;103712;1266;61403;-60
2023/10/27 05:49:30;;;;;;;6.40;5.80;;;;;;;15.55;100.00;97843.33;103540;1266;59778;-61
2023/10/27 05:52:02;;;;;;;;;;;;;;;15.56;100.00;97846.60;104374;1262;72037;-61
2023/10/27 05:54:30;;;;;;;6.80;6.00;;;;;;;15.57;100.00;97846.52;104414;1259;70025;-61
2023/10/27 05:56:58;;;;;;;9.00;6.30;;;;;;;15.62;100.00;97841.85;104508;1257;72902;-63
2023/10/27 05:59:26;;;;;;;6.60;6.00;;;;;;;15.68;100.00;97837.23;104245;1256;61085;-61
2023/10/27 06:01:54;;;;;;;7.90;6.10;;;;;;;15.72;100.00;97842.85;104438;1256;59719;-62
2023/10/27 06:04:39;;;;;;;6.90;6.30;;;;;;;15.75;100.00;97845.06;104232;1258;72823;-62
2023/10/27 06:07:07;;;;;;;6.50;5.90;;;;;;;15.75;100.00;97843.51;104373;1258;68185;-61
2023/10/27 06:09:35;;;;;;;6.70;6.10;;;;;;;15.78;100.00;97836.30;104355;1253;72471;-60
2023/10/27 06:12:04;;;;;;;9.60;6.70;;;;;;;15.80;100.00;97835.41;104291;1269;62051;-61
2023/10/27 06:14:33;;;;;;;11.70;6.70;;;;;;;15.82;100.00;97838.80;104400;1251;59822;-61
2023/10/27 06:17:00;;;;;;;8.70;7.00;;;;;;;15.84;100.00;97852.89;108417;1251;72889;-63
2023/10/27 06:19:30;;;;;;;;;;;;;;;15.87;100.00;97855.45;107841;1252;72952;-62
2023/10/27 06:22:02;;;;;;;7.60;6.90;;;;;;;15.89;100.00;97863.52;104772;1253;72186;-61
2023/10/27 06:24:30;;;;;;;7.20;6.60;;;;;;;15.92;100.00;97862.02;104653;1255;61757;-62
2023/10/27 06:26:58;;;;;;;7.00;6.40;;;;;;;15.97;100.00;97862.29;104370;1256;60142;-62
2023/10/27 06:29:26;;;;;;;7.60;6.90;;;;;;;16.01;100.00;97858.04;104434;1256;75123;-63
2023/10/27 06:31:54;;;;;;;8.60;7.20;;;;;;;16.06;100.00;97859.88;104357;1265;70203;-63
2023/10/27 06:34:21;;;;;;;7.70;6.90;;;;;;;16.11;100.00;97858.71;104268;1256;72334;-62
2023/10/27 06:36:49;;;;;;;10.40;7.00;;;;;;;16.15;100.00;97861.33;104421;1252;61786;-62
2023/10/27 06:39:18;;;;;;;12.20;7.40;;;;;;;16.17;100.00;97860.09;104313;1257;59748;-63
2023/10/27 06:41:48;;;;;;;9.30;7.80;;;;;;;16.17;100.00;97866.59;104421;1253;72754;-62
2023/10/27 06:44:16;;;;;;;8.70;7.00;;;;;;;16.20;100.00;97868.81;104395;1269;69151;-63
2023/10/27 06:46:45;;;;;;;7.50;6.70;;;;;;;16.20;100.00;97866.50;104405;1253;73363;-62
2023/10/27 06:49:15;;;;;;;12.10;7.50;;;;;;;16.22;100.00;97864.67;104642;1255;61407;-62
2023/10/27 06:53:14;;;;;;;7.90;7.20;;;;;;;15.68;100.00;97867.71;101185;1292;601419;-61
2023/10/27 06:55:42;;;;;;;8.30;7.50;;;;;;;16.23;100.00;97865.14;104237;1270;61398;-62
2023/10/27 06:58:09;;;;;;;;;;;;;;;16.28;100.00;97869.29;104181;1263;59466;-63
2023/10/27 07:00:37;;;;;;;;;;;;;;;16.28;100.00;97868.39;105160;1264;72840;-62
2023/10/27 07:03:05;;;;;;;7.80;7.10;;;;;;;16.26;100.00;97867.52;104124;1265;70110;-62
2023/10/27 07:05:51;;;;;;;9.20;7.40;;;;;;;16.27;100.00;97872.02;103765;1261;401781;-61
2023/10/27 07:08:19;;;;;;;8.80;7.80;;;;;;;16.26;100.00;97873.46;104366;1254;61509;-62
2023/10/27 07:10:48;;;;;;;9.00;7.40;;;;;;;16.30;100.00;97876.35;104350;1253;59874;-65
2023/10/27 07:13:16;;;;;;;9.00;8.10;;;;;;;16.36;100.00;97878.04;104272;1259;71922;-62
2023/10/27 07:15:43;;;;;;;10.20;8.50;;;;;;;16.42;100.00;97877.36;104484;1267;69586;-62
2023/10/27 07:18:11;;;;;;;8.20;7.40;;;;;;;16.49;100.00;97872.23;108108;1253;72574;-62
2023/10/27 07:20:42;;;;;;;;;;;;;;;16.54;100.00;97876.92;108101;1254;61442;-62
2023/10/27 07:23:09;;;;;;;7.40;6.50;;;;;;;16.63;100.00;97877.11;108107;1253;59926;-62
2023/10/27 07:25:37;;;;;;;7.60;6.90;;;;;;;16.69;100.00;97880.57;106633;1253;73550;-62
2023/10/27 07:28:05;;;;;;;8.00;6.90;;;;;;;16.78;100.00;97885.93;108106;1253;70035;-63
2023/10/27 07:30:33;;;;;;;8.20;7.30;;;;;;;16.86;100.00;97889.79;108302;1253;72780;-62
2023/10/27 07:33:00;;;;;;;7.70;6.90;;;;;;;16.96;100.00;97890.23;104680;1253;61860;-62
2023/10/27 07:35:28;;;;;;;11.70;7.20;;;;;;;17.03;100.00;97890.30;104331;1255;59772;-61
2023/10/27 07:37:56;;;;;;;7.90;6.60;;;;;;;17.10;100.00;97893.34;104313;1259;73468;-61
2023/10/27 07:40:24;;;;;;;7.20;6.50;;;;;;;17.14;100.00;97893.64;104357;1259;71951;-59
2023/10/27 07:42:53;;;;;;;7.90;6.10;;;;;;;17.22;100.00;97895.55;104282;1276;72485;-62
2023/10/27 07:45:20;;;;;;;7.20;6.50;;;;;;;17.30;100.00;97896.12;104459;1256;61512;-62
2023/10/27 07:47:48;;;;;;;6.90;6.30;;;;;;;17.41;100.00;97896.31;104417;1258;59834;-61
2023/10/27 07:50:17;;;;;;;6.40;5.80;;;;;;;17.49;100.00;97904.91;104276;1259;73483;-62
2023/10/27 07:52:46;;;;;;;7.70;6.10;;;;;;;17.59;100.00;97903.54;104390;1254;70850;-62
2023/10/27 07:55:13;;;;;;;6.90;6.20;;;;;;;17.65;100.00;97904.88;104366;1258;74497;-62
2023/10/27 07:57:41;;;;;;;;;;;;;;;17.68;100.00;97906.88;104248;1262;61859;-62
2023/10/27 08:00:09;;;;;;;;;;;;;;;17.81;100.00;97904.90;104324;1266;59729;-63
2023/10/27 08:02:38;;;;;;;7.70;5.50;;;;;;;17.85;100.00;97912.15;104410;1259;73258;-63
2023/10/27 08:05:07;;;;;;;8.00;4.90;;;;;;;17.91;100.00;97906.26;104284;1278;69080;-62
2023/10/27 08:07:35;;;;;;;;;;;;;;;17.97;100.00;97898.23;104323;1259;73438;-62
2023/10/27 08:10:07;;;;;;;5.00;4.50;;;;;;;18.03;100.00;97897.54;104467;1254;61676;-61
2023/10/27 08:12:35;;;;;;;5.40;4.90;;;;;;;18.06;100.00;97903.52;104295;1254;59782;-62
2023/10/27 08:15:06;;;;;;;8.20;5.20;;;;;;;18.16;100.00;97903.71;105276;1254;71903;-63
2023/10/27 08:17:34;;;;;;;5.00;4.60;;;;;;;18.21;100.00;97907.11;104354;1272;70241;-62
2023/10/27 08:20:03;;;;;;;6.50;5.50;;;;;;;18.30;100.00;97903.20;104322;1255;72442;-62
2023/10/27 08:22:32;;;;;;;7.90;6.20;;;;;;;18.39;100.00;97911.31;104830;1255;62372;-62
2023/10/27 08:25:00;;;;;;;6.70;5.20;;;;;;;18.46;100.00;97916.63;104506;1254;59905;-61
2023/10/27 08:27:30;;;;;;;7.20;5.20;;;;;;;18.47;100.00;97919.17;104545;1253;73294;-62
2023/10/27 08:29:58;;;;;;;7.90;5.60;;;;;;;18.50;100.00;97927.09;104311;1265;68662;-62
2023/10/27 08:32:26;;;;;;;5.40;4.90;;;;;;;18.53;100.00;97929.21;104386;1254;72529;-63
2023/10/27 08:34:55;;;;;;;7.00;5.60;;;;;;;18.59;100.00;97931.27;104337;1257;63163;-62
2023/10/27 08:37:23;;;;;;;5.90;5.30;;;;;;;18.64;100.00;97933.80;104335;1267;59916;-63
2023/10/27 08:39:52;;;;;;;5.90;5.50;;;;;;;18.68;100.00;97940.80;104272;1266;73303;-63
2023/10/27 08:42:19;;;;;;;7.20;5.50;;;;;;;18.73;100.00;97941.03;104319;1264;68220;-63
2023/10/27 08:44:47;;;;;;;6.50;5.40;;;;;;;18.75;100.00;97938.48;104345;1267;72536;-63
2023/10/27 08:47:15;;;;;;;;;;;;;;;18.79;100.00;97940.17;104429;1269;60696;-66
2023/10/27 08:49:43;;;;;;;;;;;;;;;18.84;100.00;97943.80;104346;1256;60181;-65
2023/10/27 08:52:10;;;;;;;6.60;5.20;;;;;;;18.85;100.00;97945.80;104480;1258;73495;-64
2023/10/27 08:54:40;;;;;;;5.90;5.00;;;;;;;18.84;100.00;97945.08;108025;1253;69750;-67
2023/10/27 08:57:08;;;;;;;6.20;5.10;;;;;;;18.85;100.00;97945.88;108013;1253;72417;-66
2023/10/27 08:59:36;;;;;;;;;;;;;;;18.85;100.00;97933.73;108396;1252;60647;-66
2023/10/27 09:02:07;;;;;;;;;;;;;;;18.95;100.00;97933.58;108258;1253;59635;-66
2023/10/27 09:04:42;;;;;;;5.40;4.30;;;;;;;19.01;100.00;97945.61;108187;1253;73148;-67
2023/10/27 09:07:10;;;;;;;6.50;5.70;;;;;;;19.06;100.00;97949.82;107067;1253;69849;-65
2023/10/27 09:09:38;;;;;;;;;;;;;;;19.10;100.00;97950.90;104318;1254;73221;-63
2023/10/27 09:12:06;;;;;;;5.70;4.50;;;;;;;19.06;100.00;97956.43;104453;1253;61656;-63
2023/10/27 09:14:34;;;;;;;;;;;;;;;19.07;100.00;97948.89;104497;1259;59647;-64
2023/10/27 09:17:07;;;;;;;5.00;4.60;;;;;;;19.08;100.00;97948.46;104405;1259;73147;-64
2023/10/27 09:19:35;;;;;;;5.00;4.50;;;;;;;19.04;100.00;97937.80;108282;1252;69341;-67
2023/10/27 09:22:13;;;;;;;5.60;5.10;;;;;;;19.08;100.00;97935.81;106790;1256;72759;-64
2023/10/27 09:24:42;;;;;;;8.30;4.70;;;;;;;19.10;100.00;97936.70;104989;1272;61664;-68
2023/10/27 09:27:09;;;;;;;5.70;4.60;;;;;;;19.07;100.00;97928.75;104626;1253;60565;-62
2023/10/27 09:29:42;;;;;;;6.20;4.70;;;;;;;19.10;100.00;97928.50;104667;1258;73403;-64
2023/10/27 09:32:26;;;;;;;4.50;4.20;;;;;;;19.10;100.00;97932.46;104439;1256;69431;-63
2023/10/27 09:35:09;;;;;;;5.90;4.70;;;;;;;19.14;100.00;97918.48;104450;1254;73260;-63
2023/10/27 09:37:43;;;;;;;6.20;4.50;;;;;;;19.20;100.00;97918.34;104301;1253;61820;-63
2023/10/27 09:40:13;;;;;;;6.30;4.50;;;;;;;19.24;100.00;97920.47;104429;1259;59744;-62
2023/10/27 09:42:41;;;;;;;6.40;4.40;;;;;;;19.27;100.00;97920.81;104509;1259;73716;-63
2023/10/27 09:45:12;;;;;;;4.30;3.90;;;;;;;19.35;100.00;97924.11;104359;1269;69101;-62
2023/10/27 09:47:47;;;;;;;5.50;4.00;;;;;;;19.41;100.00;97921.31;104313;1269;71440;-63
2023/10/27 09:50:18;;;;;;;3.80;3.40;;;;;;;19.49;100.00;97921.55;104364;1255;63849;-63
2023/10/27 09:52:46;;;;;;;8.90;3.90;;;;;;;19.62;100.00;97914.61;104401;1259;59573;-63
2023/10/27 09:55:17;;;;;;;3.70;3.30;;;;;;;19.76;100.00;97914.95;104367;1265;72815;-63
2023/10/27 09:57:45;;;;;;;4.80;3.40;;;;;;;19.88;100.00;97914.16;104328;1259;70179;-63
2023/10/27 10:00:20;;;;;;;3.40;3.10;;;;;;;19.96;100.00;97910.24;104387;1258;73235;-63
2023/10/27 10:02:48;;;;;;;4.50;3.60;;;;;;;20.00;100.00;97906.45;104343;1260;61409;-64
2023/10/27 10:05:16;;;;;;;5.60;3.70;;;;;;;20.01;100.00;97901.72;104250;1257;60010;-64
2023/10/27 10:07:44;;;;;;;;;;;;;;;20.01;100.00;97891.71;104409;1259;73540;-64
2023/10/27 10:10:19;;;;;;;4.20;3.00;;;;;;;20.07;100.00;97891.30;104384;1259;69248;-64
2023/10/27 10:13:14;;;;;;;4.70;3.00;;;;;;;20.17;100.00;97888.80;104391;1254;73289;-64
2023/10/27 10:15:43;;;;;;;5.70;3.00;;;;;;;20.26;100.00;97887.64;104495;1253;62050;-64
2023/10/27 10:18:20;;;;;;;6.30;3.00;;;;;;;20.24;100.00;97879.65;104337;1265;60410;-63
2023/10/27 10:20:48;;;;;;;7.10;2.90;;;;;;;20.19;100.00;97874.48;104331;1257;73021;-64
2023/10/27 10:23:16;;;;;;;4.50;2.90;;;;;;;20.18;100.00;97875.28;105708;1257;69277;-64
2023/10/27 10:26:10;;;;;;;5.40;2.80;;;;;;;20.19;100.00;97873.23;104372;1253;71815;-64
2023/10/27 10:28:40;;;;;;;5.10;3.00;;;;;;;20.17;100.00;97877.21;104438;1253;61805;-63
2023/10/27 10:31:08;;;;;;;3.50;3.20;;;;;;;20.17;100.00;97879.73;104377;1253;60352;-63
2023/10/27 10:33:40;;;;;;;3.70;3.00;;;;;;;20.19;100.00;97878.08;104703;1257;73155;-63
2023/10/27 10:36:14;;;;;;;2.90;2.60;;;;;;;20.20;100.00;97873.90;104294;1253;69493;-63
2023/10/27 10:38:43;;;;;;;2.90;2.70;;;;;;;20.27;100.00;97869.76;104398;1267;73214;-63
2023/10/27 10:41:11;;;;;;;3.10;2.70;;;;;;;20.30;100.00;97870.98;104373;1253;62392;-64
2023/10/27 10:43:42;;;;;;;5.50;2.90;;;;;;;20.38;100.00;97866.70;104345;1257;59756;-64
2023/10/27 10:46:11;;;;;;;6.90;3.30;;;;;;;20.45;100.00;97861.84;104442;1254;72119;-65
2023/10/27 10:48:46;;;;;;;2.50;2.20;;;;;;;20.53;100.00;97862.34;104360;1257;70034;-64
2023/10/27 10:51:15;;;;;;;3.70;2.70;;;;;;;20.59;100.00;97859.92;104387;1257;71664;-64
2023/10/27 10:53:53;;;;;;;2.50;2.30;;;;;;;20.66;100.00;97863.05;104325;1259;61750;-63
2023/10/27 10:56:22;;;;;;;4.60;2.60;;;;;;;20.66;100.00;97859.86;108174;1253;60036;-65
2023/10/27 10:58:53;;;;;;;3.50;2.20;;;;;;;20.70;100.00;97855.90;107140;1253;73597;-64
2023/10/27 11:01:21;;;;;;;1.90;1.80;;;;;;;20.72;100.00;97856.40;104496;1259;68645;-65
2023/10/27 11:03:51;;;;;;;2.50;2.00;;;;;;;20.79;100.00;97849.32;104407;1275;72823;-66
2023/10/27 11:06:26;;;;;;;3.20;2.10;;;;;;;20.85;100.00;97846.34;104850;1255;61430;-63
2023/10/27 11:08:54;;;;;;;3.90;2.20;;;;;;;20.87;100.00;97844.67;104709;1268;60513;-65
2023/10/27 11:11:22;;;;;;;3.00;2.10;;;;;;;20.93;100.00;97843.67;104386;1268;74346;-64
2023/10/27 11:14:03;;;;;;;3.00;2.30;;;;;;;20.92;100.00;97844.04;104269;1265;69728;-63
2023/10/27 11:16:33;;;;;;;4.30;2.10;;;;;;;20.99;100.00;97841.13;104475;1254;71661;-65
2023/10/27 11:19:02;;;;;;;3.70;2.50;;;;;;;21.05;100.00;97839.29;104862;1253;61808;-64
2023/10/27 11:21:32;;;;;;;2.10;1.90;;;;;;;21.13;100.00;97832.63;108220;1257;60116;-64
2023/10/27 11:24:06;;;;;;;3.00;2.20;;;;;;;21.14;100.00;97826.24;105141;1258;74742;-64
2023/10/27 11:26:41;;;;;;;4.60;1.80;;;;;;;21.20;100.00;97829.60;104388;1275;70634;-63
2023/10/27 11:29:09;;;;;;;2.40;1.90;;;;;;;21.23;100.00;97824.88;104356;1257;72537;-64
2023/10/27 11:31:40;;;;;;;7.70;2.40;;;;;;;21.31;100.00;97830.14;104396;1257;61657;-64
2023/10/27 11:34:09;;;;;;;2.60;1.80;;;;;;;21.42;99.60;97827.13;104782;1253;60863;-64
2023/10/27 11:36:39;;;;;;;4.00;1.60;;;;;;;21.56;99.40;97826.27;104361;1253;74358;-64
2023/10/27 11:39:21;;;;;;;1.70;1.50;;;;;;;21.67;96.79;97820.16;104303;1258;69438;-63